createdAt,value
2022-10-13T00:02:19.739Z,27.00
2022-10-13T00:06:36.005Z,24.48
2022-10-13T00:10:52.294Z,23.00
2022-10-13T00:15:09.012Z,20.60
2022-10-13T00:19:25.656Z,23.50
2022-10-13T00:23:42.013Z,21.70
2022-10-13T00:27:57.972Z,23.02
2022-10-13T00:32:14.082Z,22.25
2022-10-13T00:36:30.339Z,20.52
2022-10-13T00:40:54.842Z,24.87
2022-10-13T00:45:29.962Z,25.95
2022-10-13T00:49:45.902Z,25.05
2022-10-13T00:54:03.528Z,22.92
2022-10-13T00:58:22.058Z,23.00
2022-10-13T01:02:38.871Z,20.20
2022-10-13T01:06:56.016Z,25.37
2022-10-13T01:11:36.176Z,21.73
2022-10-13T01:16:09.214Z,31.42
2022-10-13T01:20:58.843Z,23.73
2022-10-13T01:25:39.590Z,26.17
2022-10-13T01:30:22.892Z,23.27
2022-10-13T01:35:00.033Z,21.12
2022-10-13T01:39:24.324Z,22.50
2022-10-13T01:43:47.382Z,21.40
2022-10-13T01:48:05.002Z,27.33
2022-10-13T01:52:22.965Z,28.23
2022-10-13T01:56:38.911Z,30.45
2022-10-13T02:01:06.300Z,25.10
2022-10-13T02:05:31.159Z,24.08
2022-10-13T02:10:14.826Z,22.10
2022-10-13T02:14:33.716Z,23.08
2022-10-13T02:18:50.562Z,25.15
2022-10-13T02:23:11.124Z,25.67
2022-10-13T02:27:27.083Z,21.35
2022-10-13T02:31:44.105Z,23.75
2022-10-13T02:36:00.094Z,22.35
2022-10-13T02:40:16.238Z,23.30
2022-10-13T02:44:32.311Z,25.05
2022-10-13T02:48:48.441Z,25.83
2022-10-13T02:53:04.395Z,23.30
2022-10-13T02:57:20.389Z,22.52
2022-10-13T03:01:41.354Z,24.27
2022-10-13T03:05:57.312Z,24.65
2022-10-13T03:10:13.356Z,26.37
2022-10-13T03:14:29.353Z,24.70
2022-10-13T03:18:48.265Z,24.08
2022-10-13T03:23:04.489Z,27.83
2022-10-13T03:27:21.039Z,25.27
2022-10-13T03:31:36.956Z,24.40
2022-10-13T03:35:52.885Z,28.17
2022-10-13T03:40:10.271Z,24.95
2022-10-13T03:44:26.274Z,25.50
2022-10-13T03:48:42.494Z,27.05
2022-10-13T03:52:58.448Z,22.73
2022-10-13T03:57:14.514Z,25.90
2022-10-13T04:01:31.127Z,25.83
2022-10-13T04:05:47.806Z,25.55
2022-10-13T04:10:03.863Z,31.52
2022-10-13T04:14:20.578Z,27.27
2022-10-13T04:18:37.491Z,25.65
2022-10-13T04:22:56.013Z,27.17
2022-10-13T04:27:11.985Z,24.50
2022-10-13T04:31:29.772Z,29.50
2022-10-13T04:35:45.746Z,35.85
2022-10-13T04:40:01.756Z,28.58
2022-10-13T04:44:17.686Z,27.23
2022-10-13T04:48:33.682Z,25.25
2022-10-13T04:52:49.634Z,21.85
2022-10-13T04:57:05.648Z,25.23
2022-10-13T05:01:23.895Z,22.45
2022-10-13T05:05:40.201Z,26.95
2022-10-13T05:09:56.192Z,31.45
2022-10-13T05:14:12.151Z,29.90
2022-10-13T05:18:28.043Z,52.20
2022-10-13T05:22:44.275Z,34.17
2022-10-13T05:27:00.219Z,32.28
2022-10-13T05:31:21.919Z,28.55
2022-10-13T05:35:37.822Z,27.55
2022-10-13T05:39:53.993Z,74.30
2022-10-13T05:44:10.545Z,39.20
2022-10-13T05:48:27.086Z,181.68
2022-10-13T05:52:43.283Z,215.27
2022-10-13T05:57:06.413Z,260.42
2022-10-13T06:01:25.228Z,175.75
2022-10-13T06:05:43.319Z,273.27
2022-10-13T06:09:59.816Z,75.82
2022-10-13T06:14:15.772Z,144.45
2022-10-13T06:18:31.689Z,85.72
2022-10-13T06:22:50.226Z,174.93
2022-10-13T06:27:06.203Z,60.20
2022-10-13T06:31:22.145Z,113.90
2022-10-13T06:35:38.088Z,144.65
2022-10-13T06:39:54.120Z,106.70
2022-10-13T06:44:11.261Z,107.85
2022-10-13T06:48:28.507Z,59.60
2022-10-13T06:52:44.581Z,62.60
2022-10-13T06:57:00.656Z,30.88
2022-10-13T07:01:16.581Z,50.95
2022-10-13T07:05:32.565Z,31.70
2022-10-13T07:09:48.921Z,47.45
2022-10-13T07:14:05.288Z,147.55
2022-10-13T07:18:21.204Z,47.10
2022-10-13T07:22:37.193Z,165.52
2022-10-13T07:26:53.261Z,237.73
2022-10-13T07:31:14.352Z,55.58
2022-10-13T07:35:31.056Z,48.00
2022-10-13T07:39:47.309Z,37.90
2022-10-13T07:44:03.366Z,35.03
2022-10-13T07:48:19.433Z,105.07
2022-10-13T07:52:36.739Z,33.53
2022-10-13T07:56:56.104Z,50.92
2022-10-13T08:01:13.177Z,41.45
2022-10-13T08:05:29.141Z,40.58
2022-10-13T08:09:45.218Z,34.53
2022-10-13T08:14:01.268Z,35.42
2022-10-13T08:18:17.194Z,34.83
2022-10-13T08:22:34.517Z,34.83
2022-10-13T08:26:51.152Z,31.85
2022-10-13T08:31:07.297Z,33.17
2022-10-13T08:35:23.434Z,30.95
2022-10-13T08:39:39.383Z,29.55
2022-10-13T08:44:49.512Z,27.42
2022-10-13T08:48:41.407Z,26.17
2022-10-13T08:52:58.710Z,25.83
2022-10-13T08:57:14.689Z,28.12
2022-10-13T09:01:33.205Z,28.27
2022-10-13T09:06:00.153Z,26.77
2022-10-13T09:10:16.705Z,24.65
2022-10-13T09:14:35.792Z,22.17
2022-10-13T09:18:51.750Z,26.10
2022-10-13T09:23:20.849Z,22.90
2022-10-13T09:27:54.718Z,22.15
2022-10-13T09:32:21.879Z,21.37
2022-10-13T09:36:38.832Z,21.87
2022-10-13T09:41:00.623Z,22.00
2022-10-13T09:45:18.941Z,20.33
2022-10-13T09:49:43.572Z,45.22
2022-10-13T09:53:59.809Z,16.92
2022-10-13T09:58:25.406Z,15.30
2022-10-13T10:03:00.389Z,22.33
2022-10-13T10:07:23.503Z,18.62
2022-10-13T10:16:17.704Z,20.35
2022-10-13T10:20:36.479Z,17.23
2022-10-13T10:25:10.376Z,15.07
2022-10-13T10:29:33.389Z,23.77
2022-10-13T10:34:04.565Z,14.45
2022-10-13T10:38:48.496Z,18.37
2022-10-13T10:43:22.642Z,14.50
2022-10-13T10:47:42.766Z,16.60
2022-10-13T10:52:00.459Z,16.60
2022-10-13T10:56:22.461Z,17.10
2022-10-13T11:00:49.306Z,13.70
2022-10-13T11:05:06.540Z,12.85
2022-10-13T11:09:41.504Z,9.98
2022-10-13T11:14:17.739Z,16.15
2022-10-13T11:19:25.615Z,11.57
2022-10-13T11:23:46.802Z,12.73
2022-10-13T11:28:20.946Z,13.40
2022-10-13T11:32:37.048Z,16.77
2022-10-13T11:36:56.866Z,13.25
2022-10-13T11:41:18.828Z,12.13
2022-10-13T11:46:16.765Z,13.00
2022-10-13T11:50:35.479Z,16.80
2022-10-13T11:55:13.938Z,15.43
2022-10-13T11:59:39.924Z,12.48
2022-10-13T12:03:55.945Z,14.55
2022-10-13T12:08:11.955Z,19.12
2022-10-13T12:12:27.933Z,14.55
2022-10-13T12:17:02.590Z,16.50
2022-10-13T12:21:23.115Z,12.82
2022-10-13T12:25:39.224Z,11.10
2022-10-13T12:29:55.314Z,18.05
2022-10-13T12:34:31.078Z,12.45
2022-10-13T12:38:52.952Z,19.52
2022-10-13T12:43:13.301Z,15.27
2022-10-13T12:47:49.112Z,14.00
2022-10-13T12:52:14.630Z,12.15
2022-10-13T12:56:32.157Z,11.10
2022-10-13T13:00:57.551Z,17.58
2022-10-13T13:05:32.401Z,14.38
2022-10-13T13:10:09.113Z,13.77
2022-10-13T13:14:37.356Z,14.20
2022-10-13T13:18:53.290Z,18.25
2022-10-13T13:23:09.293Z,22.35
2022-10-13T13:27:38.549Z,18.17
2022-10-13T13:31:54.817Z,18.52
2022-10-13T13:36:31.114Z,16.92
2022-10-13T13:40:47.100Z,21.62
2022-10-13T13:45:03.037Z,20.48
2022-10-13T13:49:19.011Z,16.25
2022-10-13T13:53:34.923Z,14.85
2022-10-13T13:57:51.264Z,18.67
2022-10-13T14:02:12.135Z,11.38
2022-10-13T14:06:28.323Z,14.63
2022-10-13T14:10:44.250Z,17.25
2022-10-13T14:15:00.610Z,13.60
2022-10-13T14:19:16.898Z,14.93
2022-10-13T14:23:32.829Z,20.02
2022-10-13T14:27:48.771Z,14.70
2022-10-13T14:32:05.128Z,11.77
2022-10-13T14:36:21.103Z,16.65
2022-10-13T14:40:40.524Z,15.02
2022-10-13T14:44:56.514Z,23.05
2022-10-13T14:49:12.746Z,13.00
2022-10-13T14:53:28.710Z,12.95
2022-10-13T14:57:44.657Z,15.30
2022-10-13T15:02:00.703Z,11.40
2022-10-13T15:06:21.148Z,12.45
2022-10-13T15:10:37.134Z,13.65
2022-10-13T15:14:53.136Z,17.52
2022-10-13T15:19:09.141Z,13.50
2022-10-13T15:23:25.322Z,28.27
2022-10-13T15:27:42.268Z,25.30
2022-10-13T15:32:10.310Z,17.65
2022-10-13T15:36:26.265Z,18.52
2022-10-13T15:40:42.321Z,15.18
2022-10-13T15:45:13.764Z,15.30
2022-10-13T15:49:29.742Z,14.00
2022-10-13T15:53:46.490Z,19.37
2022-10-13T15:58:02.459Z,16.77
2022-10-13T16:02:18.689Z,16.30
2022-10-13T16:06:37.327Z,17.00
2022-10-13T16:10:53.364Z,16.85
2022-10-13T16:15:10.269Z,16.60
2022-10-13T16:19:26.252Z,15.00
2022-10-13T16:23:42.707Z,14.68
2022-10-13T16:27:59.532Z,22.58
2022-10-13T16:32:15.585Z,18.52
2022-10-13T16:36:31.481Z,16.58
2022-10-13T16:40:47.423Z,17.23
2022-10-13T16:45:03.505Z,20.90
2022-10-13T16:49:19.476Z,17.62
2022-10-13T16:53:35.849Z,20.23
2022-10-13T16:57:52.450Z,14.48
2022-10-13T17:02:13.263Z,14.02
2022-10-13T17:06:29.830Z,15.07
2022-10-13T17:10:45.731Z,28.67
2022-10-13T17:15:01.775Z,15.52
2022-10-13T17:19:17.712Z,24.80
2022-10-13T17:23:33.776Z,22.85
2022-10-13T17:27:49.702Z,14.40
2022-10-13T17:32:05.661Z,15.55
2022-10-13T17:36:27.039Z,17.17
2022-10-13T17:40:42.995Z,24.90
2022-10-13T17:44:58.926Z,16.50
2022-10-13T17:49:17.025Z,17.90
2022-10-13T17:53:32.975Z,18.12
2022-10-13T17:57:48.978Z,15.82
2022-10-13T18:02:04.988Z,17.70
2022-10-13T18:09:10.417Z,14.90
2022-10-13T18:13:26.504Z,17.17
2022-10-13T18:17:42.467Z,18.17
2022-10-13T18:21:58.473Z,17.73
2022-10-13T18:26:17.120Z,23.23
2022-10-13T18:30:33.730Z,21.33
2022-10-13T18:34:50.442Z,19.00
2022-10-13T18:39:10.526Z,16.20
2022-10-13T18:43:26.499Z,21.85
2022-10-13T18:47:42.684Z,18.40
2022-10-13T18:51:59.488Z,17.73
2022-10-13T18:56:20.951Z,17.08
2022-10-13T19:00:37.213Z,17.90
2022-10-13T19:04:53.207Z,16.87
2022-10-13T19:09:11.921Z,19.15
2022-10-13T19:13:28.154Z,20.70
2022-10-13T19:17:44.192Z,24.60
2022-10-13T19:22:00.388Z,22.80
2022-10-13T19:26:19.805Z,27.90
2022-10-13T19:30:35.744Z,20.70
2022-10-13T19:34:51.703Z,23.75
2022-10-13T19:39:12.951Z,28.42
2022-10-13T19:43:28.962Z,20.48
2022-10-13T19:47:44.865Z,20.10
2022-10-13T19:52:00.771Z,22.42
2022-10-13T19:56:28.287Z,22.90
2022-10-13T20:00:45.740Z,22.48
2022-10-13T20:05:01.740Z,19.35
2022-10-13T20:09:18.941Z,27.62
2022-10-13T20:13:35.417Z,25.95
2022-10-13T20:17:51.382Z,26.33
2022-10-13T20:22:07.279Z,26.75
2022-10-13T20:26:23.506Z,20.75
2022-10-13T20:30:40.262Z,27.02
2022-10-13T20:34:56.214Z,26.80
2022-10-13T20:39:12.151Z,20.60
2022-10-13T20:43:28.083Z,22.02
2022-10-13T20:47:44.214Z,20.73
2022-10-13T20:52:00.237Z,22.02
2022-10-13T20:56:21.747Z,24.42
2022-10-13T21:00:37.783Z,25.12
2022-10-13T21:04:53.722Z,23.62
2022-10-13T21:09:10.032Z,26.02
2022-10-13T21:13:26.634Z,23.55
2022-10-13T21:17:42.676Z,22.87
2022-10-13T21:21:59.342Z,22.33
2022-10-13T21:26:20.382Z,24.10
2022-10-13T21:30:37.549Z,22.50
2022-10-13T21:34:54.219Z,23.52
2022-10-13T21:39:10.200Z,24.52
2022-10-13T21:43:26.157Z,22.17
2022-10-13T21:47:42.090Z,23.85
2022-10-13T21:51:58.034Z,23.77
2022-10-13T21:56:14.006Z,22.17
2022-10-13T22:00:30.873Z,22.62
2022-10-13T22:04:46.833Z,22.83
2022-10-13T22:09:04.818Z,24.60
2022-10-13T22:13:20.715Z,26.48
2022-10-13T22:17:36.638Z,23.25
2022-10-13T22:21:52.585Z,26.92
2022-10-13T22:26:09.289Z,22.92
2022-10-13T22:30:25.543Z,26.23
2022-10-13T22:34:41.569Z,24.67
2022-10-13T22:38:59.998Z,22.00
2022-10-13T22:43:15.951Z,29.73
2022-10-13T22:47:31.931Z,23.83
2022-10-13T22:51:47.904Z,25.23
2022-10-13T22:56:08.536Z,24.17
2022-10-13T23:00:24.483Z,23.05
2022-10-13T23:04:40.414Z,26.75
2022-10-13T23:08:56.872Z,23.80
2022-10-13T23:13:12.840Z,23.62
2022-10-13T23:17:28.885Z,23.58
2022-10-13T23:21:44.800Z,25.60
2022-10-13T23:26:09.350Z,23.12
2022-10-13T23:30:25.309Z,24.30
2022-10-13T23:34:41.369Z,26.33
2022-10-13T23:38:58.873Z,23.95
2022-10-13T23:43:14.838Z,27.25
2022-10-13T23:47:30.874Z,26.60
2022-10-13T23:51:46.931Z,24.58
2022-10-13T23:56:04.509Z,26.65
